sensor_id;sensor_type;location;lat;lon;timestamp;P1;durP1;ratioP1;P2;durP2;ratioP2
19358;SDS011;9815;52.334;20.890;2023-11-18T00:01:33;23.27;;;10.87;;
19358;SDS011;9815;52.334;20.890;2023-11-18T00:04:02;22.77;;;10.93;;
19358;SDS011;9815;52.334;20.890;2023-11-18T00:06:32;21.67;;;11.23;;
19358;SDS011;9815;52.334;20.890;2023-11-18T00:09:00;22.27;;;10.53;;
19358;SDS011;9815;52.334;20.890;2023-11-18T00:11:28;24.13;;;12.07;;
19358;SDS011;9815;52.334;20.890;2023-11-18T00:13:56;23.70;;;10.83;;
19358;SDS011;9815;52.334;20.890;2023-11-18T00:16:26;22.67;;;11.40;;
19358;SDS011;9815;52.334;20.890;2023-11-18T00:18:57;21.60;;;11.17;;
19358;SDS011;9815;52.334;20.890;2023-11-18T00:21:26;24.60;;;11.07;;
19358;SDS011;9815;52.334;20.890;2023-11-18T00:23:54;25.43;;;11.83;;
19358;SDS011;9815;52.334;20.890;2023-11-18T00:26:23;23.97;;;11.73;;
19358;SDS011;9815;52.334;20.890;2023-11-18T00:28:57;26.13;;;11.90;;
19358;SDS011;9815;52.334;20.890;2023-11-18T00:31:27;22.83;;;11.23;;
19358;SDS011;9815;52.334;20.890;2023-11-18T00:33:57;21.90;;;10.73;;
19358;SDS011;9815;52.334;20.890;2023-11-18T00:36:26;22.47;;;11.77;;
19358;SDS011;9815;52.334;20.890;2023-11-18T00:38:54;26.60;;;12.20;;
19358;SDS011;9815;52.334;20.890;2023-11-18T00:41:23;31.40;;;12.60;;
19358;SDS011;9815;52.334;20.890;2023-11-18T00:43:51;24.53;;;12.03;;
19358;SDS011;9815;52.334;20.890;2023-11-18T00:46:20;23.00;;;10.70;;
19358;SDS011;9815;52.334;20.890;2023-11-18T00:48:49;23.30;;;11.03;;
19358;SDS011;9815;52.334;20.890;2023-11-18T00:51:18;23.80;;;11.70;;
19358;SDS011;9815;52.334;20.890;2023-11-18T00:53:47;21.87;;;10.53;;
19358;SDS011;9815;52.334;20.890;2023-11-18T00:56:15;23.40;;;10.73;;
19358;SDS011;9815;52.334;20.890;2023-11-18T00:58:44;20.23;;;10.40;;
19358;SDS011;9815;52.334;20.890;2023-11-18T01:01:13;19.13;;;9.73;;
19358;SDS011;9815;52.334;20.890;2023-11-18T01:03:44;19.50;;;9.47;;
19358;SDS011;9815;52.334;20.890;2023-11-18T01:06:12;20.03;;;10.07;;
19358;SDS011;9815;52.334;20.890;2023-11-18T01:08:44;19.87;;;9.30;;
19358;SDS011;9815;52.334;20.890;2023-11-18T01:11:15;20.60;;;10.33;;
19358;SDS011;9815;52.334;20.890;2023-11-18T01:13:46;19.53;;;10.23;;
19358;SDS011;9815;52.334;20.890;2023-11-18T01:16:15;20.17;;;9.47;;
19358;SDS011;9815;52.334;20.890;2023-11-18T01:18:43;18.93;;;10.10;;
19358;SDS011;9815;52.334;20.890;2023-11-18T01:21:12;18.53;;;9.73;;
19358;SDS011;9815;52.334;20.890;2023-11-18T01:23:45;18.93;;;9.40;;
19358;SDS011;9815;52.334;20.890;2023-11-18T01:26:13;21.17;;;10.03;;
19358;SDS011;9815;52.334;20.890;2023-11-18T01:28:42;18.20;;;9.40;;
19358;SDS011;9815;52.334;20.890;2023-11-18T01:31:11;19.17;;;9.40;;
19358;SDS011;9815;52.334;20.890;2023-11-18T01:33:40;14.77;;;8.37;;
19358;SDS011;9815;52.334;20.890;2023-11-18T01:36:11;18.47;;;8.80;;
19358;SDS011;9815;52.334;20.890;2023-11-18T01:38:40;15.13;;;7.97;;
19358;SDS011;9815;52.334;20.890;2023-11-18T01:41:09;17.33;;;8.63;;
19358;SDS011;9815;52.334;20.890;2023-11-18T01:43:38;16.83;;;8.43;;
19358;SDS011;9815;52.334;20.890;2023-11-18T01:46:07;17.80;;;8.70;;
19358;SDS011;9815;52.334;20.890;2023-11-18T01:48:39;15.37;;;8.27;;
19358;SDS011;9815;52.334;20.890;2023-11-18T01:51:09;15.70;;;7.77;;
19358;SDS011;9815;52.334;20.890;2023-11-18T01:53:38;18.53;;;8.43;;
19358;SDS011;9815;52.334;20.890;2023-11-18T01:56:11;16.43;;;8.30;;
19358;SDS011;9815;52.334;20.890;2023-11-18T01:58:41;16.83;;;8.43;;
19358;SDS011;9815;52.334;20.890;2023-11-18T02:01:10;16.30;;;8.80;;
19358;SDS011;9815;52.334;20.890;2023-11-18T02:03:43;17.77;;;9.00;;
19358;SDS011;9815;52.334;20.890;2023-11-18T02:06:11;17.13;;;9.17;;
19358;SDS011;9815;52.334;20.890;2023-11-18T02:08:42;15.53;;;8.67;;
19358;SDS011;9815;52.334;20.890;2023-11-18T02:11:16;21.53;;;8.83;;
19358;SDS011;9815;52.334;20.890;2023-11-18T02:13:51;15.70;;;8.37;;
19358;SDS011;9815;52.334;20.890;2023-11-18T02:16:25;18.50;;;8.80;;
19358;SDS011;9815;52.334;20.890;2023-11-18T02:18:55;16.07;;;8.33;;
19358;SDS011;9815;52.334;20.890;2023-11-18T02:21:24;15.00;;;8.10;;
19358;SDS011;9815;52.334;20.890;2023-11-18T02:23:54;18.40;;;8.47;;
19358;SDS011;9815;52.334;20.890;2023-11-18T02:26:24;16.27;;;9.03;;
19358;SDS011;9815;52.334;20.890;2023-11-18T02:28:52;15.70;;;8.70;;
19358;SDS011;9815;52.334;20.890;2023-11-18T02:31:22;18.43;;;9.00;;
19358;SDS011;9815;52.334;20.890;2023-11-18T02:34:00;21.10;;;9.10;;
19358;SDS011;9815;52.334;20.890;2023-11-18T02:36:34;16.57;;;8.23;;
19358;SDS011;9815;52.334;20.890;2023-11-18T02:39:08;13.27;;;7.77;;
19358;SDS011;9815;52.334;20.890;2023-11-18T02:41:46;13.87;;;8.20;;
19358;SDS011;9815;52.334;20.890;2023-11-18T02:44:19;15.57;;;8.63;;
19358;SDS011;9815;52.334;20.890;2023-11-18T02:46:50;14.97;;;8.07;;
19358;SDS011;9815;52.334;20.890;2023-11-18T02:49:18;15.93;;;8.97;;
19358;SDS011;9815;52.334;20.890;2023-11-18T02:51:46;15.83;;;8.53;;
19358;SDS011;9815;52.334;20.890;2023-11-18T02:54:14;16.10;;;8.57;;
19358;SDS011;9815;52.334;20.890;2023-11-18T02:56:44;16.97;;;8.47;;
19358;SDS011;9815;52.334;20.890;2023-11-18T02:59:12;17.30;;;8.80;;
19358;SDS011;9815;52.334;20.890;2023-11-18T03:01:41;16.17;;;8.70;;
19358;SDS011;9815;52.334;20.890;2023-11-18T03:04:09;15.03;;;8.37;;
19358;SDS011;9815;52.334;20.890;2023-11-18T03:06:40;16.17;;;9.20;;
19358;SDS011;9815;52.334;20.890;2023-11-18T03:09:09;14.57;;;8.93;;
19358;SDS011;9815;52.334;20.890;2023-11-18T03:11:37;20.47;;;9.97;;
19358;SDS011;9815;52.334;20.890;2023-11-18T03:14:07;14.93;;;9.17;;
19358;SDS011;9815;52.334;20.890;2023-11-18T03:16:36;16.07;;;9.20;;
19358;SDS011;9815;52.334;20.890;2023-11-18T03:19:05;16.30;;;9.20;;
19358;SDS011;9815;52.334;20.890;2023-11-18T03:21:35;14.73;;;8.53;;
19358;SDS011;9815;52.334;20.890;2023-11-18T03:24:05;14.90;;;8.83;;
19358;SDS011;9815;52.334;20.890;2023-11-18T03:26:35;17.63;;;9.77;;
19358;SDS011;9815;52.334;20.890;2023-11-18T03:29:04;17.70;;;9.30;;
19358;SDS011;9815;52.334;20.890;2023-11-18T03:31:33;18.43;;;9.87;;
19358;SDS011;9815;52.334;20.890;2023-11-18T03:34:02;15.00;;;9.27;;
19358;SDS011;9815;52.334;20.890;2023-11-18T03:36:30;18.63;;;9.73;;
19358;SDS011;9815;52.334;20.890;2023-11-18T03:38:59;14.83;;;9.00;;
19358;SDS011;9815;52.334;20.890;2023-11-18T03:41:28;19.37;;;8.87;;
19358;SDS011;9815;52.334;20.890;2023-11-18T03:43:57;17.60;;;9.97;;
19358;SDS011;9815;52.334;20.890;2023-11-18T03:46:25;16.57;;;9.43;;
19358;SDS011;9815;52.334;20.890;2023-11-18T03:49:02;17.87;;;10.43;;
19358;SDS011;9815;52.334;20.890;2023-11-18T03:51:30;17.30;;;10.47;;
19358;SDS011;9815;52.334;20.890;2023-11-18T03:53:59;18.83;;;9.60;;
19358;SDS011;9815;52.334;20.890;2023-11-18T03:56:27;14.40;;;8.70;;
19358;SDS011;9815;52.334;20.890;2023-11-18T03:58:55;12.83;;;8.27;;
19358;SDS011;9815;52.334;20.890;2023-11-18T04:01:24;14.23;;;8.30;;
19358;SDS011;9815;52.334;20.890;2023-11-18T04:03:54;13.80;;;8.40;;
19358;SDS011;9815;52.334;20.890;2023-11-18T04:06:24;14.37;;;8.33;;
19358;SDS011;9815;52.334;20.890;2023-11-18T04:08:52;14.23;;;8.83;;
19358;SDS011;9815;52.334;20.890;2023-11-18T04:11:20;21.17;;;10.13;;
19358;SDS011;9815;52.334;20.890;2023-11-18T04:13:50;15.87;;;9.13;;
19358;SDS011;9815;52.334;20.890;2023-11-18T04:16:22;24.30;;;10.43;;
19358;SDS011;9815;52.334;20.890;2023-11-18T04:18:50;25.20;;;10.80;;
19358;SDS011;9815;52.334;20.890;2023-11-18T04:21:18;19.67;;;9.57;;
19358;SDS011;9815;52.334;20.890;2023-11-18T04:23:48;22.37;;;8.97;;
19358;SDS011;9815;52.334;20.890;2023-11-18T04:26:17;16.90;;;8.70;;
19358;SDS011;9815;52.334;20.890;2023-11-18T04:28:45;18.23;;;9.77;;
19358;SDS011;9815;52.334;20.890;2023-11-18T04:31:13;16.87;;;9.40;;
19358;SDS011;9815;52.334;20.890;2023-11-18T04:33:41;19.30;;;8.07;;
19358;SDS011;9815;52.334;20.890;2023-11-18T04:36:10;17.50;;;9.00;;
19358;SDS011;9815;52.334;20.890;2023-11-18T04:38:40;20.57;;;8.93;;
19358;SDS011;9815;52.334;20.890;2023-11-18T04:41:10;18.07;;;8.30;;
19358;SDS011;9815;52.334;20.890;2023-11-18T04:43:38;16.40;;;8.67;;
19358;SDS011;9815;52.334;20.890;2023-11-18T04:46:11;20.40;;;9.67;;
19358;SDS011;9815;52.334;20.890;2023-11-18T04:48:40;14.67;;;8.13;;
19358;SDS011;9815;52.334;20.890;2023-11-18T04:51:09;14.50;;;7.93;;
19358;SDS011;9815;52.334;20.890;2023-11-18T04:53:38;17.27;;;9.00;;
19358;SDS011;9815;52.334;20.890;2023-11-18T04:56:07;15.47;;;7.93;;
19358;SDS011;9815;52.334;20.890;2023-11-18T04:58:38;10.80;;;7.10;;
19358;SDS011;9815;52.334;20.890;2023-11-18T05:01:07;11.77;;;7.33;;
19358;SDS011;9815;52.334;20.890;2023-11-18T05:03:35;12.90;;;7.27;;
19358;SDS011;9815;52.334;20.890;2023-11-18T05:06:04;16.20;;;8.97;;
19358;SDS011;9815;52.334;20.890;2023-11-18T05:08:35;17.80;;;8.87;;
19358;SDS011;9815;52.334;20.890;2023-11-18T05:11:03;10.87;;;7.60;;
19358;SDS011;9815;52.334;20.890;2023-11-18T05:13:32;15.87;;;9.07;;
19358;SDS011;9815;52.334;20.890;2023-11-18T05:16:04;12.33;;;6.70;;
19358;SDS011;9815;52.334;20.890;2023-11-18T05:18:33;14.10;;;8.33;;
19358;SDS011;9815;52.334;20.890;2023-11-18T05:21:04;14.10;;;8.10;;
19358;SDS011;9815;52.334;20.890;2023-11-18T05:23:33;11.83;;;7.63;;
19358;SDS011;9815;52.334;20.890;2023-11-18T05:26:02;14.27;;;7.43;;
19358;SDS011;9815;52.334;20.890;2023-11-18T05:28:32;12.07;;;7.33;;
19358;SDS011;9815;52.334;20.890;2023-11-18T05:31:00;13.90;;;7.53;;
19358;SDS011;9815;52.334;20.890;2023-11-18T05:33:31;12.10;;;6.70;;
19358;SDS011;9815;52.334;20.890;2023-11-18T05:36:02;11.27;;;6.80;;
19358;SDS011;9815;52.334;20.890;2023-11-18T05:38:32;10.63;;;6.07;;
19358;SDS011;9815;52.334;20.890;2023-11-18T05:41:01;11.17;;;6.47;;
19358;SDS011;9815;52.334;20.890;2023-11-18T05:43:33;11.57;;;7.03;;
19358;SDS011;9815;52.334;20.890;2023-11-18T05:46:08;10.40;;;6.37;;
19358;SDS011;9815;52.334;20.890;2023-11-18T05:48:47;11.33;;;6.97;;
19358;SDS011;9815;52.334;20.890;2023-11-18T05:51:18;11.10;;;6.07;;
19358;SDS011;9815;52.334;20.890;2023-11-18T05:53:49;10.13;;;6.57;;
19358;SDS011;9815;52.334;20.890;2023-11-18T05:56:18;11.73;;;7.10;;
19358;SDS011;9815;52.334;20.890;2023-11-18T05:58:50;9.93;;;6.60;;
19358;SDS011;9815;52.334;20.890;2023-11-18T06:01:21;9.53;;;6.00;;
19358;SDS011;9815;52.334;20.890;2023-11-18T06:03:50;11.83;;;6.97;;
19358;SDS011;9815;52.334;20.890;2023-11-18T06:06:19;11.13;;;6.23;;
19358;SDS011;9815;52.334;20.890;2023-11-18T06:08:50;11.47;;;6.87;;
19358;SDS011;9815;52.334;20.890;2023-11-18T06:11:20;9.20;;;6.03;;
19358;SDS011;9815;52.334;20.890;2023-11-18T06:13:50;11.57;;;6.37;;
19358;SDS011;9815;52.334;20.890;2023-11-18T06:16:21;12.30;;;6.67;;
19358;SDS011;9815;52.334;20.890;2023-11-18T06:18:51;14.37;;;7.47;;
19358;SDS011;9815;52.334;20.890;2023-11-18T06:21:22;15.60;;;7.97;;
19358;SDS011;9815;52.334;20.890;2023-11-18T06:23:55;17.60;;;9.17;;
19358;SDS011;9815;52.334;20.890;2023-11-18T06:26:23;15.23;;;8.50;;
19358;SDS011;9815;52.334;20.890;2023-11-18T06:28:54;13.47;;;7.03;;
19358;SDS011;9815;52.334;20.890;2023-11-18T06:31:24;11.73;;;6.63;;
19358;SDS011;9815;52.334;20.890;2023-11-18T06:33:54;12.73;;;7.37;;
19358;SDS011;9815;52.334;20.890;2023-11-18T06:36:22;12.63;;;7.13;;
19358;SDS011;9815;52.334;20.890;2023-11-18T06:38:53;16.57;;;8.27;;
19358;SDS011;9815;52.334;20.890;2023-11-18T06:41:23;17.67;;;8.73;;
19358;SDS011;9815;52.334;20.890;2023-11-18T06:43:53;14.67;;;7.53;;
19358;SDS011;9815;52.334;20.890;2023-11-18T06:46:29;15.50;;;8.90;;
19358;SDS011;9815;52.334;20.890;2023-11-18T06:49:01;13.43;;;7.80;;
19358;SDS011;9815;52.334;20.890;2023-11-18T06:51:34;15.47;;;8.20;;
19358;SDS011;9815;52.334;20.890;2023-11-18T06:54:05;12.47;;;8.40;;
19358;SDS011;9815;52.334;20.890;2023-11-18T06:56:38;17.37;;;8.57;;
19358;SDS011;9815;52.334;20.890;2023-11-18T06:59:09;15.33;;;8.90;;
19358;SDS011;9815;52.334;20.890;2023-11-18T07:01:40;18.10;;;8.97;;
19358;SDS011;9815;52.334;20.890;2023-11-18T07:04:11;20.17;;;10.13;;
19358;SDS011;9815;52.334;20.890;2023-11-18T07:06:42;16.27;;;8.37;;
19358;SDS011;9815;52.334;20.890;2023-11-18T07:09:11;17.27;;;8.47;;
19358;SDS011;9815;52.334;20.890;2023-11-18T07:11:44;19.63;;;9.30;;
19358;SDS011;9815;52.334;20.890;2023-11-18T07:14:15;13.83;;;8.10;;
19358;SDS011;9815;52.334;20.890;2023-11-18T07:16:45;16.57;;;8.80;;
19358;SDS011;9815;52.334;20.890;2023-11-18T07:19:14;16.73;;;8.30;;
19358;SDS011;9815;52.334;20.890;2023-11-18T07:21:48;18.47;;;9.00;;
19358;SDS011;9815;52.334;20.890;2023-11-18T07:24:17;19.57;;;9.70;;
19358;SDS011;9815;52.334;20.890;2023-11-18T07:26:47;21.93;;;10.40;;
19358;SDS011;9815;52.334;20.890;2023-11-18T07:29:18;17.33;;;9.27;;
19358;SDS011;9815;52.334;20.890;2023-11-18T07:31:48;19.13;;;9.77;;
19358;SDS011;9815;52.334;20.890;2023-11-18T07:34:17;20.17;;;10.17;;
19358;SDS011;9815;52.334;20.890;2023-11-18T07:36:46;21.90;;;10.07;;
19358;SDS011;9815;52.334;20.890;2023-11-18T07:39:15;14.43;;;8.83;;
19358;SDS011;9815;52.334;20.890;2023-11-18T07:41:50;18.63;;;10.00;;
19358;SDS011;9815;52.334;20.890;2023-11-18T07:44:23;19.30;;;10.50;;
19358;SDS011;9815;52.334;20.890;2023-11-18T07:46:53;19.20;;;10.30;;
19358;SDS011;9815;52.334;20.890;2023-11-18T07:49:21;23.53;;;11.03;;
19358;SDS011;9815;52.334;20.890;2023-11-18T07:51:52;21.10;;;10.90;;
19358;SDS011;9815;52.334;20.890;2023-11-18T07:54:21;21.03;;;10.30;;
19358;SDS011;9815;52.334;20.890;2023-11-18T07:56:50;21.00;;;9.97;;
19358;SDS011;9815;52.334;20.890;2023-11-18T07:59:20;20.80;;;9.20;;
19358;SDS011;9815;52.334;20.890;2023-11-18T08:01:50;19.07;;;9.70;;
19358;SDS011;9815;52.334;20.890;2023-11-18T08:04:21;20.37;;;9.67;;
19358;SDS011;9815;52.334;20.890;2023-11-18T08:06:49;18.40;;;10.10;;
19358;SDS011;9815;52.334;20.890;2023-11-18T08:09:18;24.73;;;10.97;;
19358;SDS011;9815;52.334;20.890;2023-11-18T08:11:49;22.83;;;11.23;;
19358;SDS011;9815;52.334;20.890;2023-11-18T08:14:19;59.43;;;20.87;;
19358;SDS011;9815;52.334;20.890;2023-11-18T08:16:49;25.93;;;11.70;;
19358;SDS011;9815;52.334;20.890;2023-11-18T08:19:18;27.07;;;12.33;;
19358;SDS011;9815;52.334;20.890;2023-11-18T08:21:47;34.07;;;13.73;;
19358;SDS011;9815;52.334;20.890;2023-11-18T08:24:16;20.00;;;9.13;;
19358;SDS011;9815;52.334;20.890;2023-11-18T08:26:45;20.97;;;9.70;;
19358;SDS011;9815;52.334;20.890;2023-11-18T08:29:14;22.10;;;10.53;;
19358;SDS011;9815;52.334;20.890;2023-11-18T08:31:43;22.07;;;11.30;;
19358;SDS011;9815;52.334;20.890;2023-11-18T08:34:13;25.33;;;11.93;;
19358;SDS011;9815;52.334;20.890;2023-11-18T08:36:45;25.73;;;12.73;;
19358;SDS011;9815;52.334;20.890;2023-11-18T08:39:15;26.43;;;13.23;;
19358;SDS011;9815;52.334;20.890;2023-11-18T08:41:44;24.57;;;12.73;;
19358;SDS011;9815;52.334;20.890;2023-11-18T08:44:12;28.73;;;13.27;;
19358;SDS011;9815;52.334;20.890;2023-11-18T08:46:50;23.47;;;12.00;;
19358;SDS011;9815;52.334;20.890;2023-11-18T08:49:19;24.40;;;12.40;;
19358;SDS011;9815;52.334;20.890;2023-11-18T08:51:48;25.83;;;12.60;;
19358;SDS011;9815;52.334;20.890;2023-11-18T08:54:24;26.80;;;12.53;;
19358;SDS011;9815;52.334;20.890;2023-11-18T08:57:03;20.27;;;10.90;;
19358;SDS011;9815;52.334;20.890;2023-11-18T08:59:46;28.50;;;12.03;;
19358;SDS011;9815;52.334;20.890;2023-11-18T09:02:17;26.47;;;12.10;;
19358;SDS011;9815;52.334;20.890;2023-11-18T09:04:50;23.90;;;11.27;;
19358;SDS011;9815;52.334;20.890;2023-11-18T09:07:22;24.07;;;11.70;;
19358;SDS011;9815;52.334;20.890;2023-11-18T09:09:52;25.17;;;9.70;;
19358;SDS011;9815;52.334;20.890;2023-11-18T09:12:20;32.00;;;14.30;;
19358;SDS011;9815;52.334;20.890;2023-11-18T09:14:49;34.37;;;13.17;;
19358;SDS011;9815;52.334;20.890;2023-11-18T09:17:18;34.37;;;14.50;;
19358;SDS011;9815;52.334;20.890;2023-11-18T09:19:49;30.93;;;14.33;;
19358;SDS011;9815;52.334;20.890;2023-11-18T09:22:21;25.90;;;11.53;;
19358;SDS011;9815;52.334;20.890;2023-11-18T09:24:52;21.07;;;10.60;;
19358;SDS011;9815;52.334;20.890;2023-11-18T09:27:22;19.50;;;10.30;;
19358;SDS011;9815;52.334;20.890;2023-11-18T09:29:50;22.20;;;10.87;;
19358;SDS011;9815;52.334;20.890;2023-11-18T09:32:21;28.30;;;12.47;;
19358;SDS011;9815;52.334;20.890;2023-11-18T09:34:52;25.90;;;11.67;;
19358;SDS011;9815;52.334;20.890;2023-11-18T09:37:21;30.97;;;13.40;;
19358;SDS011;9815;52.334;20.890;2023-11-18T09:39:50;23.27;;;11.17;;
19358;SDS011;9815;52.334;20.890;2023-11-18T09:42:21;31.07;;;14.43;;
19358;SDS011;9815;52.334;20.890;2023-11-18T09:44:50;24.43;;;11.83;;
19358;SDS011;9815;52.334;20.890;2023-11-18T09:47:21;27.63;;;12.57;;
19358;SDS011;9815;52.334;20.890;2023-11-18T09:49:54;32.00;;;13.90;;
19358;SDS011;9815;52.334;20.890;2023-11-18T09:52:28;30.10;;;12.53;;
19358;SDS011;9815;52.334;20.890;2023-11-18T09:55:02;24.33;;;10.77;;
19358;SDS011;9815;52.334;20.890;2023-11-18T09:57:32;23.23;;;10.57;;
19358;SDS011;9815;52.334;20.890;2023-11-18T10:00:06;23.73;;;12.33;;
19358;SDS011;9815;52.334;20.890;2023-11-18T10:02:47;24.67;;;11.67;;
19358;SDS011;9815;52.334;20.890;2023-11-18T10:05:19;36.20;;;15.17;;
19358;SDS011;9815;52.334;20.890;2023-11-18T10:07:49;36.23;;;15.30;;
19358;SDS011;9815;52.334;20.890;2023-11-18T10:10:20;39.37;;;15.40;;
19358;SDS011;9815;52.334;20.890;2023-11-18T10:12:49;33.57;;;13.33;;
19358;SDS011;9815;52.334;20.890;2023-11-18T10:15:20;25.90;;;12.10;;
19358;SDS011;9815;52.334;20.890;2023-11-18T10:17:51;25.63;;;11.97;;
19358;SDS011;9815;52.334;20.890;2023-11-18T10:23:14;87.97;;;32.90;;
19358;SDS011;9815;52.334;20.890;2023-11-18T10:25:49;56.40;;;27.17;;
19358;SDS011;9815;52.334;20.890;2023-11-18T10:28:23;46.33;;;25.43;;
19358;SDS011;9815;52.334;20.890;2023-11-18T10:30:54;26.53;;;13.43;;
19358;SDS011;9815;52.334;20.890;2023-11-18T10:33:25;26.40;;;12.80;;
19358;SDS011;9815;52.334;20.890;2023-11-18T10:35:57;22.43;;;11.77;;
19358;SDS011;9815;52.334;20.890;2023-11-18T10:38:30;27.37;;;12.53;;
19358;SDS011;9815;52.334;20.890;2023-11-18T10:41:05;25.33;;;12.17;;
19358;SDS011;9815;52.334;20.890;2023-11-18T10:43:34;30.27;;;13.00;;
19358;SDS011;9815;52.334;20.890;2023-11-18T10:46:06;28.83;;;12.33;;
19358;SDS011;9815;52.334;20.890;2023-11-18T10:48:40;29.00;;;13.50;;
19358;SDS011;9815;52.334;20.890;2023-11-18T10:51:09;26.13;;;12.23;;
19358;SDS011;9815;52.334;20.890;2023-11-18T10:53:40;28.13;;;12.50;;
19358;SDS011;9815;52.334;20.890;2023-11-18T10:56:21;29.43;;;12.37;;
19358;SDS011;9815;52.334;20.890;2023-11-18T10:58:55;28.03;;;12.53;;
19358;SDS011;9815;52.334;20.890;2023-11-18T11:01:28;26.50;;;11.30;;
19358;SDS011;9815;52.334;20.890;2023-11-18T11:03:58;25.83;;;11.33;;
19358;SDS011;9815;52.334;20.890;2023-11-18T11:06:31;24.20;;;11.70;;
19358;SDS011;9815;52.334;20.890;2023-11-18T11:09:01;23.60;;;10.67;;
19358;SDS011;9815;52.334;20.890;2023-11-18T11:11:39;26.00;;;12.07;;
19358;SDS011;9815;52.334;20.890;2023-11-18T11:14:15;26.43;;;11.83;;
19358;SDS011;9815;52.334;20.890;2023-11-18T11:16:45;23.10;;;12.00;;
19358;SDS011;9815;52.334;20.890;2023-11-18T11:19:23;25.67;;;12.20;;
19358;SDS011;9815;52.334;20.890;2023-11-18T11:22:00;24.47;;;11.87;;
19358;SDS011;9815;52.334;20.890;2023-11-18T11:24:37;21.57;;;11.33;;
19358;SDS011;9815;52.334;20.890;2023-11-18T11:27:22;27.13;;;12.73;;
19358;SDS011;9815;52.334;20.890;2023-11-18T11:30:03;30.93;;;13.37;;
19358;SDS011;9815;52.334;20.890;2023-11-18T11:32:39;28.80;;;12.50;;
19358;SDS011;9815;52.334;20.890;2023-11-18T11:35:16;21.77;;;11.17;;
19358;SDS011;9815;52.334;20.890;2023-11-18T11:37:50;26.13;;;11.30;;
19358;SDS011;9815;52.334;20.890;2023-11-18T11:40:30;22.17;;;11.63;;
19358;SDS011;9815;52.334;20.890;2023-11-18T11:43:02;22.57;;;12.13;;
19358;SDS011;9815;52.334;20.890;2023-11-18T11:45:37;25.20;;;11.40;;
19358;SDS011;9815;52.334;20.890;2023-11-18T11:48:06;22.57;;;11.00;;
19358;SDS011;9815;52.334;20.890;2023-11-18T11:50:45;24.43;;;11.43;;
19358;SDS011;9815;52.334;20.890;2023-11-18T11:53:42;21.27;;;10.40;;
19358;SDS011;9815;52.334;20.890;2023-11-18T11:56:15;27.43;;;11.50;;
19358;SDS011;9815;52.334;20.890;2023-11-18T11:58:49;22.70;;;11.60;;
19358;SDS011;9815;52.334;20.890;2023-11-18T12:01:24;27.00;;;12.13;;
19358;SDS011;9815;52.334;20.890;2023-11-18T12:04:00;27.43;;;11.63;;
19358;SDS011;9815;52.334;20.890;2023-11-18T12:06:34;26.93;;;11.87;;
19358;SDS011;9815;52.334;20.890;2023-11-18T12:09:09;24.50;;;12.27;;
19358;SDS011;9815;52.334;20.890;2023-11-18T12:11:45;24.27;;;11.43;;
19358;SDS011;9815;52.334;20.890;2023-11-18T12:14:18;37.47;;;14.67;;
19358;SDS011;9815;52.334;20.890;2023-11-18T12:17:07;37.33;;;16.07;;
19358;SDS011;9815;52.334;20.890;2023-11-18T12:19:38;48.33;;;19.97;;
19358;SDS011;9815;52.334;20.890;2023-11-18T12:22:15;32.43;;;14.67;;
19358;SDS011;9815;52.334;20.890;2023-11-18T12:28:00;41.17;;;16.90;;
19358;SDS011;9815;52.334;20.890;2023-11-18T12:30:40;32.83;;;14.93;;
19358;SDS011;9815;52.334;20.890;2023-11-18T12:33:21;38.33;;;17.67;;
19358;SDS011;9815;52.334;20.890;2023-11-18T12:39:01;29.03;;;14.83;;
19358;SDS011;9815;52.334;20.890;2023-11-18T12:42:01;29.40;;;12.83;;
19358;SDS011;9815;52.334;20.890;2023-11-18T12:44:35;23.33;;;11.63;;
19358;SDS011;9815;52.334;20.890;2023-11-18T12:47:09;25.87;;;12.30;;
19358;SDS011;9815;52.334;20.890;2023-11-18T12:49:45;21.77;;;11.40;;
19358;SDS011;9815;52.334;20.890;2023-11-18T12:52:20;30.53;;;14.47;;
19358;SDS011;9815;52.334;20.890;2023-11-18T12:54:49;26.10;;;12.20;;
19358;SDS011;9815;52.334;20.890;2023-11-18T12:57:26;21.23;;;11.83;;
19358;SDS011;9815;52.334;20.890;2023-11-18T12:59:58;25.47;;;12.50;;
19358;SDS011;9815;52.334;20.890;2023-11-18T13:02:29;26.87;;;12.43;;
19358;SDS011;9815;52.334;20.890;2023-11-18T13:05:01;24.03;;;11.60;;
19358;SDS011;9815;52.334;20.890;2023-11-18T13:07:35;22.07;;;10.53;;
19358;SDS011;9815;52.334;20.890;2023-11-18T13:10:05;19.40;;;10.33;;
19358;SDS011;9815;52.334;20.890;2023-11-18T13:12:34;19.83;;;11.00;;
19358;SDS011;9815;52.334;20.890;2023-11-18T13:15:03;24.40;;;11.33;;
19358;SDS011;9815;52.334;20.890;2023-11-18T13:17:36;24.43;;;12.00;;
19358;SDS011;9815;52.334;20.890;2023-11-18T13:20:16;26.47;;;13.20;;
19358;SDS011;9815;52.334;20.890;2023-11-18T13:22:51;29.90;;;12.53;;
19358;SDS011;9815;52.334;20.890;2023-11-18T13:25:22;33.13;;;14.57;;
19358;SDS011;9815;52.334;20.890;2023-11-18T13:27:51;31.63;;;14.83;;
19358;SDS011;9815;52.334;20.890;2023-11-18T13:30:21;26.97;;;12.73;;
19358;SDS011;9815;52.334;20.890;2023-11-18T13:32:52;24.93;;;11.93;;
19358;SDS011;9815;52.334;20.890;2023-11-18T13:35:20;31.37;;;13.70;;
19358;SDS011;9815;52.334;20.890;2023-11-18T13:37:50;27.60;;;13.33;;
19358;SDS011;9815;52.334;20.890;2023-11-18T13:40:20;28.60;;;13.43;;
19358;SDS011;9815;52.334;20.890;2023-11-18T13:43:00;33.97;;;14.87;;
19358;SDS011;9815;52.334;20.890;2023-11-18T13:45:31;34.07;;;14.03;;
19358;SDS011;9815;52.334;20.890;2023-11-18T13:48:06;28.83;;;14.47;;
19358;SDS011;9815;52.334;20.890;2023-11-18T13:50:35;32.00;;;15.03;;
19358;SDS011;9815;52.334;20.890;2023-11-18T13:53:04;34.40;;;15.03;;
19358;SDS011;9815;52.334;20.890;2023-11-18T13:55:34;34.63;;;15.03;;
19358;SDS011;9815;52.334;20.890;2023-11-18T13:58:05;37.40;;;15.23;;
19358;SDS011;9815;52.334;20.890;2023-11-18T14:00:37;31.60;;;14.57;;
19358;SDS011;9815;52.334;20.890;2023-11-18T14:03:07;35.10;;;15.93;;
19358;SDS011;9815;52.334;20.890;2023-11-18T14:05:38;35.03;;;14.63;;
19358;SDS011;9815;52.334;20.890;2023-11-18T14:08:16;38.53;;;17.60;;
19358;SDS011;9815;52.334;20.890;2023-11-18T14:10:46;40.53;;;16.17;;
19358;SDS011;9815;52.334;20.890;2023-11-18T14:13:29;36.37;;;15.97;;
19358;SDS011;9815;52.334;20.890;2023-11-18T14:15:58;35.03;;;15.80;;
19358;SDS011;9815;52.334;20.890;2023-11-18T14:18:28;35.60;;;16.43;;
19358;SDS011;9815;52.334;20.890;2023-11-18T14:20:56;32.37;;;14.80;;
19358;SDS011;9815;52.334;20.890;2023-11-18T14:23:27;32.80;;;15.03;;
19358;SDS011;9815;52.334;20.890;2023-11-18T14:26:16;42.93;;;18.40;;
19358;SDS011;9815;52.334;20.890;2023-11-18T14:29:26;36.57;;;16.93;;
19358;SDS011;9815;52.334;20.890;2023-11-18T14:31:57;38.00;;;17.67;;
19358;SDS011;9815;52.334;20.890;2023-11-18T14:34:28;36.83;;;17.53;;
19358;SDS011;9815;52.334;20.890;2023-11-18T14:36:58;38.37;;;16.70;;
19358;SDS011;9815;52.334;20.890;2023-11-18T14:39:27;31.00;;;14.40;;
19358;SDS011;9815;52.334;20.890;2023-11-18T14:42:23;34.67;;;15.67;;
19358;SDS011;9815;52.334;20.890;2023-11-18T14:45:28;41.90;;;16.30;;
19358;SDS011;9815;52.334;20.890;2023-11-18T14:48:01;28.93;;;13.93;;
19358;SDS011;9815;52.334;20.890;2023-11-18T14:50:32;38.57;;;16.17;;
19358;SDS011;9815;52.334;20.890;2023-11-18T14:53:02;35.17;;;16.90;;
19358;SDS011;9815;52.334;20.890;2023-11-18T14:55:32;32.07;;;15.63;;
19358;SDS011;9815;52.334;20.890;2023-11-18T14:58:08;39.97;;;16.73;;
19358;SDS011;9815;52.334;20.890;2023-11-18T15:00:44;38.97;;;16.60;;
19358;SDS011;9815;52.334;20.890;2023-11-18T15:03:17;37.97;;;16.43;;